Club 10 Mile Time Trial - 16 June 2011

Printer-friendly versionPrinter-friendly version
Event Date: 
Thu 16 Jun
Start Time: 
19:45
Event type: 
Club
Distance: 
10 Mile Time Trial
Course: 
H10/2
Enter by: 
Andrew Payne
Weather: 
Temp 13 deg C, WInd SSW-WNW 7.1mph, Pressure 1013hPa; Rel Humidity 82%
Winner: 
Peter Weir
Winning Time: 
21:36







Place No Name Club time mph kph
1 37 Pete Weir MDCC 21:36 27.78 44.44
2 13 Simon Bowler Eton Tri Club 22:23 26.81 42.89
3 7 Sam Hilton MDCC 22:40 26.47 42.35
4 25 Chris Taylor MDCC 22:57 26.14 41.83
5 17 Andrew Payne MDCC 23:16 25.79 41.26
6 22 John Sullivan Westerly CC 23:27 25.59 40.94
7 4 Paul Egan Hillingdon CC 23:35 25.44 40.71
8 32 Alex Scott TVT 23:37 25.41 40.65
9 12 Danuta Tinn MDCC 23:40 25.35 40.56
10 3 Andy Waters MDCC 24:00 25.00 40.00
11 33 Rohan Battison Forviorfd 24:16 24.73 39.56
12 34 Paul Stonell Thames Velo 24:19 24.67 39.48
13 27 John Lawson TVT 24:25 24.57 39.32
14 35 Robert Attreed Eton Tri Club 24:25 24.57 39.32
15 36 Joe Franics MDCC 24:52 24.13 38.61
16 24 Tina Reid Sandy Wallace Cycles 25:11 23.83 38.12
17 16 Mike Wood MDCC 25:16 23.75 37.99
18 28 Callum Robertson MDCC 25:42 23.35 37.35
19 26 Max Coussens MDCC 26:36 22.56 36.09
20 11 Paul Hartigan MDCC 26:48 22.39 35.82
21 18 Heather Mackay MDCC 27:14 22.03 35.25
22 9 Anna Long MDCC 27:21 21.94 35.10
23 21 Nigel Shurben MDCC 27:29 21.83 34.93
24 14 Paul Todd Thames Velo 27:53 21.52 34.43
25 1 Mark Brewer MDCC 28:03 21.39 34.22
26 2 Les Gardner MDCC 28:26 21.10 33.76
27 15 David Blondell SWRC 28:37 20.97 33.55
28 23 Tim Allen CTI 29:35 20.28 32.45
29 10 Tom Crackwell CTI 30:36 19.61 31.37
30 30 Hayley Gamble CTI 31:06 19.29 30.87